sensor_id;sensor_type;location;lat;lon;timestamp;pressure;altitude;pressure_sealevel;temperature;humidity
50652;BME280;66928;52.086;5.240;2023-04-01T05:28:56;99202.0;;;10.28;100.0
50652;BME280;66928;52.086;5.240;2023-04-01T05:30:31;99207.0;;;10.39;100.0
50652;BME280;66928;52.086;5.240;2023-04-01T05:33:43;99212.0;;;10.37;100.0
50652;BME280;66928;52.086;5.240;2023-04-01T05:35:20;99219.0;;;10.57;100.0
50652;BME280;66928;52.086;5.240;2023-04-01T05:36:56;99225.0;;;10.48;100.0
50652;BME280;66928;52.086;5.240;2023-04-01T05:40:09;99221.0;;;10.58;100.0
50652;BME280;66928;52.086;5.240;2023-04-01T05:41:45;99228.0;;;10.52;100.0
50652;BME280;66928;52.086;5.240;2023-04-01T05:43:21;99226.0;;;10.44;100.0
50652;BME280;66928;52.086;5.240;2023-04-01T05:44:57;99230.0;;;10.43;100.0
50652;BME280;66928;52.086;5.240;2023-04-01T05:48:09;99230.0;;;10.61;100.0
50652;BME280;66928;52.086;5.240;2023-04-01T05:49:45;99237.0;;;10.39;100.0
50652;BME280;66928;52.086;5.240;2023-04-01T05:51:22;99241.0;;;10.4;100.0
50652;BME280;66928;52.086;5.240;2023-04-01T05:56:11;99240.0;;;10.38;100.0
50652;BME280;66928;52.086;5.240;2023-04-01T05:57:47;99243.0;;;10.43;100.0
50652;BME280;66928;52.086;5.240;2023-04-01T06:01:01;99245.0;;;10.41;100.0
50652;BME280;66928;52.086;5.240;2023-04-01T06:02:38;99250.0;;;10.17;100.0
50652;BME280;66928;52.086;5.240;2023-04-01T06:04:15;99251.0;;;10.34;100.0
50652;BME280;66928;52.086;5.240;2023-04-01T06:05:52;99257.0;;;10.23;100.0
50652;BME280;66928;52.086;5.240;2023-04-01T06:09:12;99256.0;;;10.53;100.0
50652;BME280;66928;52.086;5.240;2023-04-01T06:10:58;99257.0;;;10.48;100.0
50652;BME280;66928;52.086;5.240;2023-04-01T06:12:45;99261.0;;;10.45;100.0
50652;BME280;66928;52.086;5.240;2023-04-01T06:14:46;99270.0;;;10.39;100.0
50652;BME280;66928;52.086;5.240;2023-04-01T06:16:36;99269.0;;;10.45;100.0
50652;BME280;66928;52.086;5.240;2023-04-01T06:21:12;99273.0;;;10.3;100.0
50652;BME280;66928;52.086;5.240;2023-04-01T06:23:14;99290.0;;;10.16;100.0
50652;BME280;66928;52.086;5.240;2023-04-01T06:25:18;99284.0;;;10.05;100.0
50652;BME280;66928;52.086;5.240;2023-04-01T06:27:14;99286.0;;;10.14;100.0
50652;BME280;66928;52.086;5.240;2023-04-01T06:29:09;99291.0;;;10.32;100.0
50652;BME280;66928;52.086;5.240;2023-04-01T06:31:12;99296.0;;;10.29;100.0
50652;BME280;66928;52.086;5.240;2023-04-01T06:35:52;99303.0;;;10.16;100.0
50652;BME280;66928;52.086;5.240;2023-04-01T06:38:02;99305.0;;;10.16;100.0
50652;BME280;66928;52.086;5.240;2023-04-01T06:41:21;99308.0;;;10.33;100.0
50652;BME280;66928;52.086;5.240;2023-04-01T06:44:16;99318.0;;;10.34;100.0
50652;BME280;66928;52.086;5.240;2023-04-01T06:46:05;99319.0;;;10.27;100.0
50652;BME280;66928;52.086;5.240;2023-04-01T06:47:55;99326.0;;;10.28;100.0
50652;BME280;66928;52.086;5.240;2023-04-01T06:51:36;99337.0;;;10.11;100.0
50652;BME280;66928;52.086;5.240;2023-04-01T06:53:25;99337.0;;;10.34;100.0
50652;BME280;66928;52.086;5.240;2023-04-01T06:55:21;99339.0;;;10.3;100.0
50652;BME280;66928;52.086;5.240;2023-04-01T06:57:08;99343.0;;;10.56;100.0
50652;BME280;66928;52.086;5.240;2023-04-01T07:00:40;99349.0;;;10.5;100.0
50652;BME280;66928;52.086;5.240;2023-04-01T07:02:24;99349.0;;;10.4;100.0
50652;BME280;66928;52.086;5.240;2023-04-01T07:05:49;99355.0;;;10.43;100.0
50652;BME280;66928;52.086;5.240;2023-04-01T07:07:33;99363.0;;;10.35;100.0
50652;BME280;66928;52.086;5.240;2023-04-01T07:09:14;99369.0;;;10.69;100.0
50652;BME280;66928;52.086;5.240;2023-04-01T07:10:54;99365.0;;;10.36;100.0
50652;BME280;66928;52.086;5.240;2023-04-01T07:14:22;99365.0;;;10.48;100.0
50652;BME280;66928;52.086;5.240;2023-04-01T07:16:11;99367.0;;;10.44;100.0
50652;BME280;66928;52.086;5.240;2023-04-01T07:17:52;99371.0;;;10.4;100.0
50652;BME280;66928;52.086;5.240;2023-04-01T07:19:35;99374.0;;;10.28;100.0
50652;BME280;66928;52.086;5.240;2023-04-01T07:21:23;99374.0;;;10.28;100.0
50652;BME280;66928;52.086;5.240;2023-04-01T07:24:43;99383.0;;;10.23;100.0
50652;BME280;66928;52.086;5.240;2023-04-01T07:26:22;99392.0;;;10.11;100.0
50652;BME280;66928;52.086;5.240;2023-04-01T07:28:02;99396.0;;;10.31;100.0
50652;BME280;66928;52.086;5.240;2023-04-01T07:29:40;99397.0;;;10.14;100.0
50652;BME280;66928;52.086;5.240;2023-04-01T07:33:13;99400.0;;;10.08;100.0
50652;BME280;66928;52.086;5.240;2023-04-01T07:35:04;99400.0;;;10.29;100.0
50652;BME280;66928;52.086;5.240;2023-04-01T07:36:53;99408.0;;;10.19;100.0
50652;BME280;66928;52.086;5.240;2023-04-01T07:38:42;99408.0;;;10.21;100.0
50652;BME280;66928;52.086;5.240;2023-04-01T07:40:32;99418.0;;;10.28;100.0
50652;BME280;66928;52.086;5.240;2023-04-01T07:42:21;99414.0;;;10.25;100.0
50652;BME280;66928;52.086;5.240;2023-04-01T07:45:59;99415.0;;;10.16;100.0
50652;BME280;66928;52.086;5.240;2023-04-01T07:47:49;99417.0;;;10.14;100.0
50652;BME280;66928;52.086;5.240;2023-04-01T07:49:40;99426.0;;;10.23;100.0
50652;BME280;66928;52.086;5.240;2023-04-01T07:51:24;99424.0;;;10.29;100.0
50652;BME280;66928;52.086;5.240;2023-04-01T07:53:09;99428.0;;;10.3;100.0
50652;BME280;66928;52.086;5.240;2023-04-01T07:54:56;99432.0;;;10.38;100.0
50652;BME280;66928;52.086;5.240;2023-04-01T07:58:29;99432.0;;;10.51;100.0
50652;BME280;66928;52.086;5.240;2023-04-01T08:02:01;99442.0;;;10.61;100.0
50652;BME280;66928;52.086;5.240;2023-04-01T08:03:59;99446.0;;;10.53;100.0
50652;BME280;66928;52.086;5.240;2023-04-01T08:05:53;99449.0;;;10.45;100.0
50652;BME280;66928;52.086;5.240;2023-04-01T08:07:38;99456.0;;;10.66;100.0
50652;BME280;66928;52.086;5.240;2023-04-01T08:09:24;99459.0;;;10.72;100.0
50652;BME280;66928;52.086;5.240;2023-04-01T08:13:05;99468.0;;;10.65;100.0
50652;BME280;66928;52.086;5.240;2023-04-01T08:14:53;99462.0;;;10.66;100.0
50652;BME280;66928;52.086;5.240;2023-04-01T08:16:36;99471.0;;;10.61;100.0
50652;BME280;66928;52.086;5.240;2023-04-01T08:18:22;99473.0;;;10.84;100.0
50652;BME280;66928;52.086;5.240;2023-04-01T08:20:16;99476.0;;;10.78;100.0
50652;BME280;66928;52.086;5.240;2023-04-01T08:22:02;99480.0;;;10.63;100.0
50652;BME280;66928;52.086;5.240;2023-04-01T08:25:22;99480.0;;;10.41;100.0
50652;BME280;66928;52.086;5.240;2023-04-01T08:27:05;99476.0;;;10.61;100.0
50652;BME280;66928;52.086;5.240;2023-04-01T08:28:49;99483.0;;;10.57;100.0
50652;BME280;66928;52.086;5.240;2023-04-01T08:30:35;99486.0;;;10.87;100.0
50652;BME280;66928;52.086;5.240;2023-04-01T08:32:20;99492.0;;;10.66;100.0
50652;BME280;66928;52.086;5.240;2023-04-01T08:35:44;99495.0;;;10.81;100.0
50652;BME280;66928;52.086;5.240;2023-04-01T08:37:29;99495.0;;;10.56;100.0
50652;BME280;66928;52.086;5.240;2023-04-01T08:39:10;99501.0;;;10.59;100.0
50652;BME280;66928;52.086;5.240;2023-04-01T08:40:56;99505.0;;;10.75;100.0
50652;BME280;66928;52.086;5.240;2023-04-01T08:44:54;99508.0;;;10.93;100.0
50652;BME280;66928;52.086;5.240;2023-04-01T08:47:42;99515.0;;;10.63;100.0
50652;BME280;66928;52.086;5.240;2023-04-01T08:51:24;99523.0;;;10.57;100.0
50652;BME280;66928;52.086;5.240;2023-04-01T08:54:19;99520.0;;;10.7;100.0
50652;BME280;66928;52.086;5.240;2023-04-01T08:57:34;99530.0;;;10.68;100.0
50652;BME280;66928;52.086;5.240;2023-04-01T09:01:40;99528.0;;;10.73;100.0
50652;BME280;66928;52.086;5.240;2023-04-01T09:04:50;99536.0;;;10.81;100.0
50652;BME280;66928;52.086;5.240;2023-04-01T09:06:41;99534.0;;;10.57;100.0
50652;BME280;66928;52.086;5.240;2023-04-01T09:08:34;99533.0;;;10.87;100.0
50652;BME280;66928;52.086;5.240;2023-04-01T09:10:27;99541.0;;;10.78;100.0
50652;BME280;66928;52.086;5.240;2023-04-01T09:13:19;99540.0;;;10.91;100.0
50652;BME280;66928;52.086;5.240;2023-04-01T09:15:50;99547.0;;;10.91;100.0
50652;BME280;66928;52.086;5.240;2023-04-01T09:18:49;99555.0;;;10.78;100.0
50652;BME280;66928;52.086;5.240;2023-04-01T09:21:50;99544.0;;;10.83;100.0
50652;BME280;66928;52.086;5.240;2023-04-01T09:23:59;99555.0;;;10.87;100.0
50652;BME280;66928;52.086;5.240;2023-04-01T09:26:21;99560.0;;;10.83;100.0
50652;BME280;66928;52.086;5.240;2023-04-01T09:28:10;99560.0;;;10.85;100.0
50652;BME280;66928;52.086;5.240;2023-04-01T09:30:05;99560.0;;;10.7;100.0
50652;BME280;66928;52.086;5.240;2023-04-01T09:32:42;99564.0;;;10.75;100.0
50652;BME280;66928;52.086;5.240;2023-04-01T09:36:03;99567.0;;;10.81;100.0
50652;BME280;66928;52.086;5.240;2023-04-01T09:37:52;99568.0;;;10.94;100.0
50652;BME280;66928;52.086;5.240;2023-04-01T09:39:35;99570.0;;;10.81;100.0
50652;BME280;66928;52.086;5.240;2023-04-01T09:41:27;99572.0;;;10.85;100.0
50652;BME280;66928;52.086;5.240;2023-04-01T09:45:07;99580.0;;;10.84;100.0
50652;BME280;66928;52.086;5.240;2023-04-01T09:47:01;99581.0;;;10.77;100.0
50652;BME280;66928;52.086;5.240;2023-04-01T09:49:08;99580.0;;;10.95;100.0
50652;BME280;66928;52.086;5.240;2023-04-01T09:52:20;99582.0;;;10.86;100.0
50652;BME280;66928;52.086;5.240;2023-04-01T09:54:16;99581.0;;;10.89;100.0
50652;BME280;66928;52.086;5.240;2023-04-01T09:57:37;99586.0;;;10.83;100.0
50652;BME280;66928;52.086;5.240;2023-04-01T09:59:22;99587.0;;;10.97;100.0
50652;BME280;66928;52.086;5.240;2023-04-01T10:01:30;99592.0;;;11.1;100.0
50652;BME280;66928;52.086;5.240;2023-04-01T10:06:21;99594.0;;;10.96;100.0
50652;BME280;66928;52.086;5.240;2023-04-01T10:09:56;99603.0;;;11.0;100.0
50652;BME280;66928;52.086;5.240;2023-04-01T10:13:18;99612.0;;;10.89;100.0
50652;BME280;66928;52.086;5.240;2023-04-01T10:20:35;99619.0;;;11.07;100.0
50652;BME280;66928;52.086;5.240;2023-04-01T10:23:01;99621.0;;;11.06;100.0
50652;BME280;66928;52.086;5.240;2023-04-01T10:26:18;99622.0;;;11.49;100.0
50652;BME280;66928;52.086;5.240;2023-04-01T10:29:31;99623.0;;;11.44;100.0
50652;BME280;66928;52.086;5.240;2023-04-01T10:33:08;99630.0;;;11.13;100.0
50652;BME280;66928;52.086;5.240;2023-04-01T10:39:34;99627.0;;;11.24;100.0
50652;BME280;66928;52.086;5.240;2023-04-01T10:43:15;99635.0;;;11.26;100.0
50652;BME280;66928;52.086;5.240;2023-04-01T10:45:35;99642.0;;;11.51;100.0
50652;BME280;66928;52.086;5.240;2023-04-01T10:49:33;99644.0;;;11.41;100.0
50652;BME280;66928;52.086;5.240;2023-04-01T10:53:38;99643.0;;;11.53;100.0
50652;BME280;66928;52.086;5.240;2023-04-01T10:57:12;99646.0;;;11.43;100.0
50652;BME280;66928;52.086;5.240;2023-04-01T10:59:31;99650.0;;;11.63;100.0
50652;BME280;66928;52.086;5.240;2023-04-01T11:05:02;99648.0;;;11.72;99.82
50652;BME280;66928;52.086;5.240;2023-04-01T11:06:35;99653.0;;;11.84;99.15
50652;BME280;66928;52.086;5.240;2023-04-01T11:07:37;99651.0;;;12.04;98.23
50652;BME280;66928;52.086;5.240;2023-04-01T11:14:38;99658.0;;;12.2;98.44
50652;BME280;66928;52.086;5.240;2023-04-01T11:16:27;99652.0;;;12.34;97.44
50652;BME280;66928;52.086;5.240;2023-04-01T11:19:59;99652.0;;;12.33;98.52
50652;BME280;66928;52.086;5.240;2023-04-01T11:21:31;99655.0;;;11.95;98.89
50652;BME280;66928;52.086;5.240;2023-04-01T11:22:23;99660.0;;;12.38;98.46
50652;BME280;66928;52.086;5.240;2023-04-01T11:23:51;99660.0;;;12.38;98.46
50652;BME280;66928;52.086;5.240;2023-04-01T11:25:42;99665.0;;;12.44;97.94
50652;BME280;66928;52.086;5.240;2023-04-01T11:28:04;99673.0;;;12.25;97.58
50652;BME280;66928;52.086;5.240;2023-04-01T11:30:20;99681.0;;;12.25;96.8
50652;BME280;66928;52.086;5.240;2023-04-01T11:34:01;99680.0;;;12.34;97.67
50652;BME280;66928;52.086;5.240;2023-04-01T11:36:06;99678.0;;;12.46;96.97
50652;BME280;66928;52.086;5.240;2023-04-01T11:38:12;99680.0;;;12.58;96.78
50652;BME280;66928;52.086;5.240;2023-04-01T11:40:01;99692.0;;;12.16;98.38
50652;BME280;66928;52.086;5.240;2023-04-01T11:41:49;99695.0;;;12.17;96.13
50652;BME280;66928;52.086;5.240;2023-04-01T11:43:33;99696.0;;;12.16;94.61
50652;BME280;66928;52.086;5.240;2023-04-01T11:45:21;99695.0;;;12.24;95.72
50652;BME280;66928;52.086;5.240;2023-04-01T11:47:37;99694.0;;;12.41;94.86
50652;BME280;66928;52.086;5.240;2023-04-01T11:49:33;99703.0;;;12.27;93.67
50652;BME280;66928;52.086;5.240;2023-04-01T11:51:47;99698.0;;;12.42;95.9
50652;BME280;66928;52.086;5.240;2023-04-01T11:54:07;99700.0;;;12.52;94.92
50652;BME280;66928;52.086;5.240;2023-04-01T11:55:58;99701.0;;;12.72;93.33
50652;BME280;66928;52.086;5.240;2023-04-01T11:57:56;99705.0;;;12.4;93.33
50652;BME280;66928;52.086;5.240;2023-04-01T11:59:52;99709.0;;;12.66;92.43
50652;BME280;66928;52.086;5.240;2023-04-01T12:01:47;99709.0;;;12.64;93.29
50652;BME280;66928;52.086;5.240;2023-04-01T12:03:48;99717.0;;;12.4;93.32
50652;BME280;66928;52.086;5.240;2023-04-01T12:06:03;99715.0;;;12.65;94.04
50652;BME280;66928;52.086;5.240;2023-04-01T12:07:59;99717.0;;;12.89;93.4
50652;BME280;66928;52.086;5.240;2023-04-01T12:11:29;99724.0;;;12.53;94.44
50652;BME280;66928;52.086;5.240;2023-04-01T12:13:22;99730.0;;;12.69;94.72
50652;BME280;66928;52.086;5.240;2023-04-01T12:15:13;99730.0;;;12.88;93.77
50652;BME280;66928;52.086;5.240;2023-04-01T12:16:59;99734.0;;;12.57;95.84
50652;BME280;66928;52.086;5.240;2023-04-01T12:18:41;99736.0;;;12.61;95.01
50652;BME280;66928;52.086;5.240;2023-04-01T12:20:33;99740.0;;;12.59;95.65
50652;BME280;66928;52.086;5.240;2023-04-01T12:24:36;99748.0;;;12.55;93.39
50652;BME280;66928;52.086;5.240;2023-04-01T12:27:23;99753.0;;;12.71;92.25
50652;BME280;66928;52.086;5.240;2023-04-01T12:29:15;99755.0;;;12.57;93.58
50652;BME280;66928;52.086;5.240;2023-04-01T12:31:06;99753.0;;;12.36;95.26
50652;BME280;66928;52.086;5.240;2023-04-01T12:33:01;99763.0;;;12.34;95.91
50652;BME280;66928;52.086;5.240;2023-04-01T12:36:47;99762.0;;;12.36;95.18
50652;BME280;66928;52.086;5.240;2023-04-01T12:38:36;99767.0;;;12.22;96.73
50652;BME280;66928;52.086;5.240;2023-04-01T12:40:27;99764.0;;;12.22;97.35
50652;BME280;66928;52.086;5.240;2023-04-01T12:43:19;99776.0;;;11.99;97.73
50652;BME280;66928;52.086;5.240;2023-04-01T12:45:23;99780.0;;;12.18;96.2
50652;BME280;66928;52.086;5.240;2023-04-01T12:52:04;99783.0;;;12.24;97.7
50652;BME280;66928;52.086;5.240;2023-04-01T12:55:17;99786.0;;;12.07;98.6
50652;BME280;66928;52.086;5.240;2023-04-01T13:01:45;99795.0;;;11.89;99.38
50652;BME280;66928;52.086;5.240;2023-04-01T13:03:58;99799.0;;;11.81;99.52
50652;BME280;66928;52.086;5.240;2023-04-01T13:06:01;99808.0;;;11.77;99.89
50652;BME280;66928;52.086;5.240;2023-04-01T13:09:27;99809.0;;;11.58;100.0
50652;BME280;66928;52.086;5.240;2023-04-01T13:11:14;99809.0;;;11.82;99.98
50652;BME280;66928;52.086;5.240;2023-04-01T13:13:13;99812.0;;;11.8;100.0
50652;BME280;66928;52.086;5.240;2023-04-01T13:15:15;99813.0;;;11.86;100.0
50652;BME280;66928;52.086;5.240;2023-04-01T13:19:02;99817.0;;;11.86;99.82
50652;BME280;66928;52.086;5.240;2023-04-01T13:22:29;99821.0;;;11.87;99.64
50652;BME280;66928;52.086;5.240;2023-04-01T13:24:31;99822.0;;;12.12;98.36
50652;BME280;66928;52.086;5.240;2023-04-01T13:26:18;99821.0;;;12.27;97.9
50652;BME280;66928;52.086;5.240;2023-04-01T13:28:04;99831.0;;;12.17;98.23
50652;BME280;66928;52.086;5.240;2023-04-01T13:29:57;99837.0;;;12.12;98.11
50652;BME280;66928;52.086;5.240;2023-04-01T13:32:01;99838.0;;;12.05;99.23
50652;BME280;66928;52.086;5.240;2023-04-01T13:33:46;99835.0;;;11.92;99.61
50652;BME280;66928;52.086;5.240;2023-04-01T13:37:25;99841.0;;;11.99;99.97
50652;BME280;66928;52.086;5.240;2023-04-01T13:39:27;99843.0;;;12.05;99.88
50652;BME280;66928;52.086;5.240;2023-04-01T13:41:13;99847.0;;;12.01;98.46
50652;BME280;66928;52.086;5.240;2023-04-01T13:43:01;99851.0;;;11.72;99.0
50652;BME280;66928;52.086;5.240;2023-04-01T13:44:42;99856.0;;;11.61;98.91
50652;BME280;66928;52.086;5.240;2023-04-01T13:47:07;99855.0;;;11.65;100.0
50652;BME280;66928;52.086;5.240;2023-04-01T13:48:57;99861.0;;;11.53;100.0
50652;BME280;66928;52.086;5.240;2023-04-01T13:52:21;99857.0;;;11.61;100.0
50652;BME280;66928;52.086;5.240;2023-04-01T13:54:32;99859.0;;;11.42;100.0
50652;BME280;66928;52.086;5.240;2023-04-01T13:56:36;99860.0;;;11.3;100.0
50652;BME280;66928;52.086;5.240;2023-04-01T14:01:06;99861.0;;;11.41;100.0
50652;BME280;66928;52.086;5.240;2023-04-01T14:03:00;99866.0;;;11.26;100.0
50652;BME280;66928;52.086;5.240;2023-04-01T14:06:52;99867.0;;;11.29;100.0
50652;BME280;66928;52.086;5.240;2023-04-01T14:08:42;99867.0;;;11.02;100.0
50652;BME280;66928;52.086;5.240;2023-04-01T14:10:36;99873.0;;;11.24;100.0
50652;BME280;66928;52.086;5.240;2023-04-01T14:12:28;99876.0;;;11.03;100.0
50652;BME280;66928;52.086;5.240;2023-04-01T14:14:14;99885.0;;;11.34;100.0
50652;BME280;66928;52.086;5.240;2023-04-01T14:16:10;99888.0;;;11.19;100.0
50652;BME280;66928;52.086;5.240;2023-04-01T14:18:02;99884.0;;;11.06;100.0
50652;BME280;66928;52.086;5.240;2023-04-01T14:20:05;99896.0;;;11.04;100.0
50652;BME280;66928;52.086;5.240;2023-04-01T14:21:58;99893.0;;;11.2;100.0
50652;BME280;66928;52.086;5.240;2023-04-01T14:23:53;99907.0;;;11.11;100.0
50652;BME280;66928;52.086;5.240;2023-04-01T14:29:21;99902.0;;;11.13;100.0
50652;BME280;66928;52.086;5.240;2023-04-01T14:31:23;99907.0;;;11.07;100.0
50652;BME280;66928;52.086;5.240;2023-04-01T14:33:28;99908.0;;;11.05;100.0
50652;BME280;66928;52.086;5.240;2023-04-01T14:35:27;99922.0;;;11.1;100.0
50652;BME280;66928;52.086;5.240;2023-04-01T14:37:30;99916.0;;;10.99;100.0
50652;BME280;66928;52.086;5.240;2023-04-01T14:40:27;99919.0;;;11.07;100.0
50652;BME280;66928;52.086;5.240;2023-04-01T14:43:38;99932.0;;;11.02;100.0
50652;BME280;66928;52.086;5.240;2023-04-01T14:45:29;99930.0;;;10.98;100.0
50652;BME280;66928;52.086;5.240;2023-04-01T14:48:50;99939.0;;;11.1;100.0
50652;BME280;66928;52.086;5.240;2023-04-01T14:50:29;99939.0;;;11.15;100.0
50652;BME280;66928;52.086;5.240;2023-04-01T14:52:21;99941.0;;;11.14;100.0
50652;BME280;66928;52.086;5.240;2023-04-01T14:54:05;99953.0;;;11.04;100.0
50652;BME280;66928;52.086;5.240;2023-04-01T14:55:49;99950.0;;;11.03;100.0
50652;BME280;66928;52.086;5.240;2023-04-01T14:57:28;99953.0;;;11.04;100.0
50652;BME280;66928;52.086;5.240;2023-04-01T15:01:12;99956.0;;;11.08;100.0
50652;BME280;66928;52.086;5.240;2023-04-01T15:02:57;99965.0;;;11.08;100.0
50652;BME280;66928;52.086;5.240;2023-04-01T15:04:50;99963.0;;;11.19;100.0
50652;BME280;66928;52.086;5.240;2023-04-01T15:06:39;99969.0;;;11.15;100.0
50652;BME280;66928;52.086;5.240;2023-04-01T15:08:32;99973.0;;;11.1;100.0
50652;BME280;66928;52.086;5.240;2023-04-01T15:10:29;99980.0;;;11.05;100.0
50652;BME280;66928;52.086;5.240;2023-04-01T15:12:19;99981.0;;;11.2;100.0
50652;BME280;66928;52.086;5.240;2023-04-01T15:14:13;99986.0;;;11.17;100.0
50652;BME280;66928;52.086;5.240;2023-04-01T15:16:20;99995.0;;;11.03;100.0
50652;BME280;66928;52.086;5.240;2023-04-01T15:20:01;99994.0;;;11.03;100.0
50652;BME280;66928;52.086;5.240;2023-04-01T15:21:50;99999.0;;;11.03;100.0
50652;BME280;66928;52.086;5.240;2023-04-01T15:23:48;100007.0;;;11.04;100.0
50652;BME280;66928;52.086;5.240;2023-04-01T15:25:37;100009.0;;;11.03;100.0
50652;BME280;66928;52.086;5.240;2023-04-01T15:27:32;100011.0;;;11.14;100.0
50652;BME280;66928;52.086;5.240;2023-04-01T15:29:38;100014.0;;;11.12;100.0
50652;BME280;66928;52.086;5.240;2023-04-01T15:31:26;100030.0;;;11.05;100.0
50652;BME280;66928;52.086;5.240;2023-04-01T15:33:17;100019.0;;;11.0;100.0
50652;BME280;66928;52.086;5.240;2023-04-01T15:35:38;100032.0;;;10.87;100.0
50652;BME280;66928;52.086;5.240;2023-04-01T15:37:29;100036.0;;;10.82;100.0
50652;BME280;66928;52.086;5.240;2023-04-01T15:39:13;100032.0;;;10.75;100.0
50652;BME280;66928;52.086;5.240;2023-04-01T15:42:49;100043.0;;;10.75;100.0
50652;BME280;66928;52.086;5.240;2023-04-01T15:44:45;100042.0;;;10.77;100.0
50652;BME280;66928;52.086;5.240;2023-04-01T15:46:43;100050.0;;;10.78;100.0
50652;BME280;66928;52.086;5.240;2023-04-01T15:48:31;100056.0;;;10.81;100.0
50652;BME280;66928;52.086;5.240;2023-04-01T15:50:28;100055.0;;;10.75;100.0
50652;BME280;66928;52.086;5.240;2023-04-01T15:52:37;100066.0;;;10.72;100.0
50652;BME280;66928;52.086;5.240;2023-04-01T15:54:27;100069.0;;;10.71;100.0
50652;BME280;66928;52.086;5.240;2023-04-01T15:57:08;100064.0;;;10.68;100.0
50652;BME280;66928;52.086;5.240;2023-04-01T15:59:04;100067.0;;;10.68;100.0
50652;BME280;66928;52.086;5.240;2023-04-01T16:00:47;100080.0;;;10.67;100.0
50652;BME280;66928;52.086;5.240;2023-04-01T16:02:32;100082.0;;;10.67;100.0
50652;BME280;66928;52.086;5.240;2023-04-01T16:04:26;100091.0;;;10.65;100.0
50652;BME280;66928;52.086;5.240;2023-04-01T16:06:26;100088.0;;;10.62;100.0
50652;BME280;66928;52.086;5.240;2023-04-01T16:08:37;100094.0;;;10.59;100.0
50652;BME280;66928;52.086;5.240;2023-04-01T16:11:38;100105.0;;;10.58;100.0
50652;BME280;66928;52.086;5.240;2023-04-01T16:13:30;100101.0;;;10.54;100.0
50652;BME280;66928;52.086;5.240;2023-04-01T16:15:18;100101.0;;;10.52;100.0
50652;BME280;66928;52.086;5.240;2023-04-01T16:17:09;100122.0;;;10.51;100.0
50652;BME280;66928;52.086;5.240;2023-04-01T16:19:07;100111.0;;;10.51;100.0
50652;BME280;66928;52.086;5.240;2023-04-01T16:20:56;100107.0;;;10.46;100.0
50652;BME280;66928;52.086;5.240;2023-04-01T16:24:22;100119.0;;;10.53;100.0
50652;BME280;66928;52.086;5.240;2023-04-01T16:26:06;100120.0;;;10.62;100.0
50652;BME280;66928;52.086;5.240;2023-04-01T16:27:50;100130.0;;;10.59;100.0
50652;BME280;66928;52.086;5.240;2023-04-01T16:29:36;100132.0;;;10.59;100.0
50652;BME280;66928;52.086;5.240;2023-04-01T16:31:29;100134.0;;;10.55;100.0
50652;BME280;66928;52.086;5.240;2023-04-01T16:35:01;100143.0;;;10.45;100.0
50652;BME280;66928;52.086;5.240;2023-04-01T16:36:44;100141.0;;;10.35;100.0
50652;BME280;66928;52.086;5.240;2023-04-01T16:38:26;100144.0;;;10.4;100.0
50652;BME280;66928;52.086;5.240;2023-04-01T16:40:13;100157.0;;;10.37;100.0
50652;BME280;66928;52.086;5.240;2023-04-01T16:42:16;100156.0;;;10.39;100.0
50652;BME280;66928;52.086;5.240;2023-04-01T16:44:10;100155.0;;;10.36;100.0
50652;BME280;66928;52.086;5.240;2023-04-01T16:47:54;100176.0;;;10.45;100.0
50652;BME280;66928;52.086;5.240;2023-04-01T16:49:36;100166.0;;;10.43;100.0
50652;BME280;66928;52.086;5.240;2023-04-01T16:51:16;100168.0;;;10.4;100.0
50652;BME280;66928;52.086;5.240;2023-04-01T16:52:59;100185.0;;;10.3;100.0
50652;BME280;66928;52.086;5.240;2023-04-01T16:54:43;100192.0;;;10.26;100.0
50652;BME280;66928;52.086;5.240;2023-04-01T16:56:23;100198.0;;;10.15;100.0
50652;BME280;66928;52.086;5.240;2023-04-01T16:59:40;100212.0;;;10.09;100.0
50652;BME280;66928;52.086;5.240;2023-04-01T17:01:24;100209.0;;;10.14;100.0
50652;BME280;66928;52.086;5.240;2023-04-01T17:03:11;100214.0;;;10.05;100.0
50652;BME280;66928;52.086;5.240;2023-04-01T17:04:55;100214.0;;;9.98;100.0
50652;BME280;66928;52.086;5.240;2023-04-01T17:08:31;100213.0;;;10.01;100.0
50652;BME280;66928;52.086;5.240;2023-04-01T17:10:28;100221.0;;;9.92;100.0
50652;BME280;66928;52.086;5.240;2023-04-01T17:12:14;100227.0;;;9.98;100.0
50652;BME280;66928;52.086;5.240;2023-04-01T17:14:01;100228.0;;;9.96;100.0
50652;BME280;66928;52.086;5.240;2023-04-01T17:15:55;100242.0;;;9.9;100.0
50652;BME280;66928;52.086;5.240;2023-04-01T17:17:45;100243.0;;;9.92;100.0
50652;BME280;66928;52.086;5.240;2023-04-01T17:19:36;100247.0;;;10.02;100.0
50652;BME280;66928;52.086;5.240;2023-04-01T17:23:25;100248.0;;;10.0;100.0
50652;BME280;66928;52.086;5.240;2023-04-01T17:25:17;100257.0;;;10.06;100.0
50652;BME280;66928;52.086;5.240;2023-04-01T17:27:05;100271.0;;;9.99;100.0
50652;BME280;66928;52.086;5.240;2023-04-01T17:28:53;100267.0;;;9.81;100.0
50652;BME280;66928;52.086;5.240;2023-04-01T17:30:35;100285.0;;;9.8;100.0
50652;BME280;66928;52.086;5.240;2023-04-01T17:32:20;100272.0;;;9.72;100.0
50652;BME280;66928;52.086;5.240;2023-04-01T17:34:22;100298.0;;;9.72;100.0
50652;BME280;66928;52.086;5.240;2023-04-01T17:36:18;100298.0;;;9.72;100.0
50652;BME280;66928;52.086;5.240;2023-04-01T17:40:00;100300.0;;;9.64;100.0
50652;BME280;66928;52.086;5.240;2023-04-01T17:41:54;100310.0;;;9.64;100.0
50652;BME280;66928;52.086;5.240;2023-04-01T17:43:39;100313.0;;;9.64;100.0
50652;BME280;66928;52.086;5.240;2023-04-01T17:45:28;100317.0;;;9.66;100.0
50652;BME280;66928;52.086;5.240;2023-04-01T17:47:20;100314.0;;;9.65;100.0
50652;BME280;66928;52.086;5.240;2023-04-01T17:49:17;100323.0;;;9.68;100.0
50652;BME280;66928;52.086;5.240;2023-04-01T17:51:10;100330.0;;;9.63;100.0
50652;BME280;66928;52.086;5.240;2023-04-01T17:53:11;100331.0;;;9.58;100.0
50652;BME280;66928;52.086;5.240;2023-04-01T17:56:43;100334.0;;;9.61;100.0
50652;BME280;66928;52.086;5.240;2023-04-01T17:58:29;100339.0;;;9.72;100.0
50652;BME280;66928;52.086;5.240;2023-04-01T18:00:21;100342.0;;;9.71;100.0
50652;BME280;66928;52.086;5.240;2023-04-01T18:02:17;100347.0;;;9.74;100.0
50652;BME280;66928;52.086;5.240;2023-04-01T18:04:10;100348.0;;;9.73;100.0
50652;BME280;66928;52.086;5.240;2023-04-01T18:05:59;100353.0;;;9.65;100.0